sensor_id;sensor_type;location;lat;lon;timestamp;P1;durP1;ratioP1;P2;durP2;ratioP2
11675;SDS011;5894;42.768;23.404;2023-06-26T00:00:13;19.42;;;13.32;;
11675;SDS011;5894;42.768;23.404;2023-06-26T00:02:40;18.08;;;13.20;;
11675;SDS011;5894;42.768;23.404;2023-06-26T00:05:07;16.88;;;13.85;;
11675;SDS011;5894;42.768;23.404;2023-06-26T00:07:35;21.30;;;13.98;;
11675;SDS011;5894;42.768;23.404;2023-06-26T00:10:03;21.13;;;14.82;;
11675;SDS011;5894;42.768;23.404;2023-06-26T00:12:31;23.38;;;14.88;;
11675;SDS011;5894;42.768;23.404;2023-06-26T00:14:58;21.30;;;16.27;;
11675;SDS011;5894;42.768;23.404;2023-06-26T00:17:25;21.77;;;16.30;;
11675;SDS011;5894;42.768;23.404;2023-06-26T00:19:53;24.13;;;16.50;;
11675;SDS011;5894;42.768;23.404;2023-06-26T00:22:20;25.00;;;17.08;;
11675;SDS011;5894;42.768;23.404;2023-06-26T00:24:48;21.08;;;16.75;;
11675;SDS011;5894;42.768;23.404;2023-06-26T00:27:16;22.98;;;16.30;;
11675;SDS011;5894;42.768;23.404;2023-06-26T00:29:43;22.23;;;15.90;;
11675;SDS011;5894;42.768;23.404;2023-06-26T00:32:10;18.65;;;13.90;;
11675;SDS011;5894;42.768;23.404;2023-06-26T00:34:38;18.17;;;12.90;;
11675;SDS011;5894;42.768;23.404;2023-06-26T00:37:04;17.00;;;12.07;;
11675;SDS011;5894;42.768;23.404;2023-06-26T00:39:32;15.43;;;11.68;;
11675;SDS011;5894;42.768;23.404;2023-06-26T00:42:00;16.48;;;11.90;;
11675;SDS011;5894;42.768;23.404;2023-06-26T00:44:30;15.27;;;11.85;;
11675;SDS011;5894;42.768;23.404;2023-06-26T00:46:57;16.08;;;11.50;;
11675;SDS011;5894;42.768;23.404;2023-06-26T00:49:24;17.33;;;11.93;;
11675;SDS011;5894;42.768;23.404;2023-06-26T00:51:52;17.48;;;11.23;;
11675;SDS011;5894;42.768;23.404;2023-06-26T00:54:19;14.63;;;11.00;;
11675;SDS011;5894;42.768;23.404;2023-06-26T00:56:48;15.48;;;11.40;;
11675;SDS011;5894;42.768;23.404;2023-06-26T00:59:15;15.32;;;10.88;;
11675;SDS011;5894;42.768;23.404;2023-06-26T01:01:43;15.02;;;10.88;;
11675;SDS011;5894;42.768;23.404;2023-06-26T01:04:12;17.17;;;11.02;;
11675;SDS011;5894;42.768;23.404;2023-06-26T01:06:43;16.63;;;11.13;;
11675;SDS011;5894;42.768;23.404;2023-06-26T01:09:15;16.88;;;11.77;;
11675;SDS011;5894;42.768;23.404;2023-06-26T01:11:43;15.25;;;11.82;;
11675;SDS011;5894;42.768;23.404;2023-06-26T01:14:10;14.75;;;11.25;;
11675;SDS011;5894;42.768;23.404;2023-06-26T01:16:38;15.57;;;10.98;;
11675;SDS011;5894;42.768;23.404;2023-06-26T01:19:09;14.30;;;11.25;;
11675;SDS011;5894;42.768;23.404;2023-06-26T01:21:41;16.67;;;11.80;;
11675;SDS011;5894;42.768;23.404;2023-06-26T01:24:15;14.30;;;11.15;;
11675;SDS011;5894;42.768;23.404;2023-06-26T01:26:50;15.65;;;11.38;;
11675;SDS011;5894;42.768;23.404;2023-06-26T01:29:18;16.95;;;11.57;;
11675;SDS011;5894;42.768;23.404;2023-06-26T01:31:45;17.23;;;11.30;;
11675;SDS011;5894;42.768;23.404;2023-06-26T01:34:17;15.02;;;10.77;;
11675;SDS011;5894;42.768;23.404;2023-06-26T01:36:45;14.38;;;11.18;;
11675;SDS011;5894;42.768;23.404;2023-06-26T01:39:14;15.18;;;11.85;;
11675;SDS011;5894;42.768;23.404;2023-06-26T01:41:42;14.98;;;11.57;;
11675;SDS011;5894;42.768;23.404;2023-06-26T01:44:14;14.73;;;11.57;;
11675;SDS011;5894;42.768;23.404;2023-06-26T01:46:54;19.20;;;11.98;;
11675;SDS011;5894;42.768;23.404;2023-06-26T01:49:31;14.63;;;11.35;;
11675;SDS011;5894;42.768;23.404;2023-06-26T01:52:07;14.75;;;11.68;;
11675;SDS011;5894;42.768;23.404;2023-06-26T01:54:42;18.30;;;12.50;;
11675;SDS011;5894;42.768;23.404;2023-06-26T01:57:14;16.42;;;12.52;;
11675;SDS011;5894;42.768;23.404;2023-06-26T01:59:46;15.48;;;12.27;;
11675;SDS011;5894;42.768;23.404;2023-06-26T02:02:14;16.00;;;13.25;;
11675;SDS011;5894;42.768;23.404;2023-06-26T02:04:41;19.98;;;13.95;;
11675;SDS011;5894;42.768;23.404;2023-06-26T02:07:08;18.33;;;13.65;;
11675;SDS011;5894;42.768;23.404;2023-06-26T02:09:36;20.42;;;13.50;;
11675;SDS011;5894;42.768;23.404;2023-06-26T02:12:03;16.73;;;12.18;;
11675;SDS011;5894;42.768;23.404;2023-06-26T02:14:31;16.98;;;12.35;;
11675;SDS011;5894;42.768;23.404;2023-06-26T02:17:00;18.58;;;12.15;;
11675;SDS011;5894;42.768;23.404;2023-06-26T02:19:27;17.00;;;11.30;;
11675;SDS011;5894;42.768;23.404;2023-06-26T02:21:54;16.92;;;11.68;;
11675;SDS011;5894;42.768;23.404;2023-06-26T02:24:23;15.55;;;12.05;;
11675;SDS011;5894;42.768;23.404;2023-06-26T02:26:52;13.50;;;10.98;;
11675;SDS011;5894;42.768;23.404;2023-06-26T02:29:19;15.70;;;11.38;;
11675;SDS011;5894;42.768;23.404;2023-06-26T02:31:46;14.13;;;11.15;;
11675;SDS011;5894;42.768;23.404;2023-06-26T02:34:16;16.10;;;11.55;;
11675;SDS011;5894;42.768;23.404;2023-06-26T02:36:43;16.38;;;11.95;;
11675;SDS011;5894;42.768;23.404;2023-06-26T02:39:11;15.55;;;10.20;;
11675;SDS011;5894;42.768;23.404;2023-06-26T02:41:39;15.80;;;11.63;;
11675;SDS011;5894;42.768;23.404;2023-06-26T02:44:07;18.17;;;11.57;;
11675;SDS011;5894;42.768;23.404;2023-06-26T02:46:34;15.95;;;11.38;;
11675;SDS011;5894;42.768;23.404;2023-06-26T02:49:01;12.57;;;10.88;;
11675;SDS011;5894;42.768;23.404;2023-06-26T02:51:31;23.70;;;11.18;;
11675;SDS011;5894;42.768;23.404;2023-06-26T02:54:00;20.45;;;11.63;;
11675;SDS011;5894;42.768;23.404;2023-06-26T02:56:28;14.88;;;11.50;;
11675;SDS011;5894;42.768;23.404;2023-06-26T02:58:57;14.68;;;10.88;;
11675;SDS011;5894;42.768;23.404;2023-06-26T03:01:26;19.25;;;11.43;;
11675;SDS011;5894;42.768;23.404;2023-06-26T03:03:54;14.00;;;11.00;;
11675;SDS011;5894;42.768;23.404;2023-06-26T03:06:21;15.05;;;11.18;;
11675;SDS011;5894;42.768;23.404;2023-06-26T03:08:50;15.15;;;10.48;;
11675;SDS011;5894;42.768;23.404;2023-06-26T03:11:17;16.92;;;11.27;;
11675;SDS011;5894;42.768;23.404;2023-06-26T03:13:44;13.57;;;10.93;;
11675;SDS011;5894;42.768;23.404;2023-06-26T03:16:13;14.63;;;10.32;;
11675;SDS011;5894;42.768;23.404;2023-06-26T03:18:40;14.73;;;11.02;;
11675;SDS011;5894;42.768;23.404;2023-06-26T03:21:08;14.20;;;10.98;;
11675;SDS011;5894;42.768;23.404;2023-06-26T03:23:36;15.75;;;10.82;;
11675;SDS011;5894;42.768;23.404;2023-06-26T03:26:04;14.38;;;10.73;;
11675;SDS011;5894;42.768;23.404;2023-06-26T03:28:34;15.25;;;11.00;;
11675;SDS011;5894;42.768;23.404;2023-06-26T03:31:01;20.33;;;11.45;;
11675;SDS011;5894;42.768;23.404;2023-06-26T03:33:29;15.45;;;11.85;;
11675;SDS011;5894;42.768;23.404;2023-06-26T03:35:56;15.32;;;11.60;;
11675;SDS011;5894;42.768;23.404;2023-06-26T03:38:24;15.32;;;11.13;;
11675;SDS011;5894;42.768;23.404;2023-06-26T03:40:54;15.45;;;11.45;;
11675;SDS011;5894;42.768;23.404;2023-06-26T03:43:22;13.38;;;10.75;;
11675;SDS011;5894;42.768;23.404;2023-06-26T03:46:01;14.48;;;10.75;;
11675;SDS011;5894;42.768;23.404;2023-06-26T03:48:29;15.20;;;11.25;;
11675;SDS011;5894;42.768;23.404;2023-06-26T03:50:57;15.20;;;11.40;;
11675;SDS011;5894;42.768;23.404;2023-06-26T03:53:26;16.80;;;11.38;;
11675;SDS011;5894;42.768;23.404;2023-06-26T03:55:54;15.45;;;12.02;;
11675;SDS011;5894;42.768;23.404;2023-06-26T03:58:23;17.20;;;11.45;;
11675;SDS011;5894;42.768;23.404;2023-06-26T04:00:51;19.00;;;12.05;;
11675;SDS011;5894;42.768;23.404;2023-06-26T04:03:22;25.92;;;13.10;;
11675;SDS011;5894;42.768;23.404;2023-06-26T04:05:49;25.75;;;12.77;;
11675;SDS011;5894;42.768;23.404;2023-06-26T04:08:17;18.83;;;11.75;;
11675;SDS011;5894;42.768;23.404;2023-06-26T04:10:45;24.88;;;11.95;;
11675;SDS011;5894;42.768;23.404;2023-06-26T04:13:13;17.48;;;11.45;;
11675;SDS011;5894;42.768;23.404;2023-06-26T04:15:42;17.83;;;11.88;;
11675;SDS011;5894;42.768;23.404;2023-06-26T04:18:09;22.38;;;12.73;;
11675;SDS011;5894;42.768;23.404;2023-06-26T04:20:38;19.23;;;12.15;;
11675;SDS011;5894;42.768;23.404;2023-06-26T04:23:08;16.88;;;12.25;;
11675;SDS011;5894;42.768;23.404;2023-06-26T04:25:35;16.13;;;11.82;;
11675;SDS011;5894;42.768;23.404;2023-06-26T04:28:03;18.25;;;12.00;;
11675;SDS011;5894;42.768;23.404;2023-06-26T04:30:30;18.77;;;12.50;;
11675;SDS011;5894;42.768;23.404;2023-06-26T04:32:58;17.52;;;11.93;;
11675;SDS011;5894;42.768;23.404;2023-06-26T04:35:27;18.13;;;12.60;;
11675;SDS011;5894;42.768;23.404;2023-06-26T04:37:54;18.50;;;11.50;;
11675;SDS011;5894;42.768;23.404;2023-06-26T04:40:23;14.77;;;11.40;;
11675;SDS011;5894;42.768;23.404;2023-06-26T04:42:50;15.52;;;11.88;;
11675;SDS011;5894;42.768;23.404;2023-06-26T04:45:17;14.20;;;11.38;;
11675;SDS011;5894;42.768;23.404;2023-06-26T04:47:44;15.38;;;11.63;;
11675;SDS011;5894;42.768;23.404;2023-06-26T04:50:12;16.60;;;12.13;;
11675;SDS011;5894;42.768;23.404;2023-06-26T04:52:40;18.45;;;11.60;;
11675;SDS011;5894;42.768;23.404;2023-06-26T04:55:07;18.40;;;12.07;;
11675;SDS011;5894;42.768;23.404;2023-06-26T04:57:34;12.98;;;11.43;;
11675;SDS011;5894;42.768;23.404;2023-06-26T05:00:01;15.80;;;11.32;;
11675;SDS011;5894;42.768;23.404;2023-06-26T05:02:29;15.27;;;11.15;;
11675;SDS011;5894;42.768;23.404;2023-06-26T05:04:56;14.68;;;11.48;;
11675;SDS011;5894;42.768;23.404;2023-06-26T05:07:25;13.77;;;11.63;;
11675;SDS011;5894;42.768;23.404;2023-06-26T05:09:52;16.48;;;12.00;;
11675;SDS011;5894;42.768;23.404;2023-06-26T05:12:22;16.42;;;11.95;;
11675;SDS011;5894;42.768;23.404;2023-06-26T05:14:49;15.05;;;12.52;;
11675;SDS011;5894;42.768;23.404;2023-06-26T05:17:16;14.85;;;12.60;;
11675;SDS011;5894;42.768;23.404;2023-06-26T05:19:43;15.88;;;13.20;;
11675;SDS011;5894;42.768;23.404;2023-06-26T05:22:12;15.88;;;13.63;;
11675;SDS011;5894;42.768;23.404;2023-06-26T05:24:42;19.10;;;13.98;;
11675;SDS011;5894;42.768;23.404;2023-06-26T05:27:13;17.90;;;13.50;;
11675;SDS011;5894;42.768;23.404;2023-06-26T05:29:47;15.77;;;13.25;;
11675;SDS011;5894;42.768;23.404;2023-06-26T05:32:15;15.25;;;13.65;;
11675;SDS011;5894;42.768;23.404;2023-06-26T05:34:44;16.60;;;13.48;;
11675;SDS011;5894;42.768;23.404;2023-06-26T05:37:14;14.70;;;12.90;;
11675;SDS011;5894;42.768;23.404;2023-06-26T05:39:48;15.82;;;13.45;;
11675;SDS011;5894;42.768;23.404;2023-06-26T05:42:16;14.95;;;13.45;;
11675;SDS011;5894;42.768;23.404;2023-06-26T05:44:43;15.77;;;14.05;;
11675;SDS011;5894;42.768;23.404;2023-06-26T05:47:11;15.13;;;13.50;;
11675;SDS011;5894;42.768;23.404;2023-06-26T05:49:38;15.23;;;13.60;;
11675;SDS011;5894;42.768;23.404;2023-06-26T05:52:06;16.27;;;14.57;;
11675;SDS011;5894;42.768;23.404;2023-06-26T05:54:34;19.55;;;15.18;;
11675;SDS011;5894;42.768;23.404;2023-06-26T05:57:03;15.73;;;14.07;;
11675;SDS011;5894;42.768;23.404;2023-06-26T05:59:31;17.63;;;13.88;;
11675;SDS011;5894;42.768;23.404;2023-06-26T06:01:58;15.98;;;13.48;;
11675;SDS011;5894;42.768;23.404;2023-06-26T06:04:25;17.33;;;14.40;;
11675;SDS011;5894;42.768;23.404;2023-06-26T06:06:52;15.13;;;13.63;;
11675;SDS011;5894;42.768;23.404;2023-06-26T06:09:20;15.93;;;14.35;;
11675;SDS011;5894;42.768;23.404;2023-06-26T06:11:47;20.25;;;14.60;;
11675;SDS011;5894;42.768;23.404;2023-06-26T06:14:16;18.10;;;15.13;;
11675;SDS011;5894;42.768;23.404;2023-06-26T06:16:43;15.20;;;13.63;;
11675;SDS011;5894;42.768;23.404;2023-06-26T06:19:11;18.38;;;16.42;;
11675;SDS011;5894;42.768;23.404;2023-06-26T06:21:39;16.92;;;15.10;;
11675;SDS011;5894;42.768;23.404;2023-06-26T06:24:06;15.90;;;14.15;;
11675;SDS011;5894;42.768;23.404;2023-06-26T06:26:35;18.60;;;14.70;;
11675;SDS011;5894;42.768;23.404;2023-06-26T06:29:02;28.75;;;16.02;;
11675;SDS011;5894;42.768;23.404;2023-06-26T06:31:31;16.25;;;13.85;;
11675;SDS011;5894;42.768;23.404;2023-06-26T06:33:58;15.90;;;14.15;;
11675;SDS011;5894;42.768;23.404;2023-06-26T06:36:25;18.23;;;14.95;;
11675;SDS011;5894;42.768;23.404;2023-06-26T06:38:52;19.30;;;13.60;;
11675;SDS011;5894;42.768;23.404;2023-06-26T06:41:19;15.13;;;13.55;;
11675;SDS011;5894;42.768;23.404;2023-06-26T06:43:47;15.57;;;12.90;;
11675;SDS011;5894;42.768;23.404;2023-06-26T06:46:14;12.35;;;10.98;;
11675;SDS011;5894;42.768;23.404;2023-06-26T06:48:42;13.63;;;12.10;;
11675;SDS011;5894;42.768;23.404;2023-06-26T06:51:09;12.95;;;11.68;;
11675;SDS011;5894;42.768;23.404;2023-06-26T06:53:36;12.85;;;11.60;;
11675;SDS011;5894;42.768;23.404;2023-06-26T06:56:03;13.02;;;11.73;;
11675;SDS011;5894;42.768;23.404;2023-06-26T06:58:30;13.13;;;11.82;;
11675;SDS011;5894;42.768;23.404;2023-06-26T07:00:59;12.25;;;11.23;;
11675;SDS011;5894;42.768;23.404;2023-06-26T07:03:29;11.85;;;10.65;;
11675;SDS011;5894;42.768;23.404;2023-06-26T07:05:57;12.38;;;11.05;;
11675;SDS011;5894;42.768;23.404;2023-06-26T07:08:24;12.43;;;11.13;;
11675;SDS011;5894;42.768;23.404;2023-06-26T07:10:51;12.05;;;10.88;;
11675;SDS011;5894;42.768;23.404;2023-06-26T07:13:18;12.40;;;11.30;;
11675;SDS011;5894;42.768;23.404;2023-06-26T07:15:46;11.75;;;10.63;;
11675;SDS011;5894;42.768;23.404;2023-06-26T07:18:13;11.30;;;10.20;;
11675;SDS011;5894;42.768;23.404;2023-06-26T07:20:40;11.80;;;10.60;;
11675;SDS011;5894;42.768;23.404;2023-06-26T07:23:10;11.32;;;9.88;;
11675;SDS011;5894;42.768;23.404;2023-06-26T07:25:37;11.77;;;10.02;;
11675;SDS011;5894;42.768;23.404;2023-06-26T07:28:05;11.02;;;9.93;;
11675;SDS011;5894;42.768;23.404;2023-06-26T07:30:36;11.00;;;9.85;;
11675;SDS011;5894;42.768;23.404;2023-06-26T07:33:03;8.98;;;8.18;;
11675;SDS011;5894;42.768;23.404;2023-06-26T07:35:30;9.90;;;8.93;;
11675;SDS011;5894;42.768;23.404;2023-06-26T07:37:57;10.77;;;9.48;;
11675;SDS011;5894;42.768;23.404;2023-06-26T07:40:26;10.38;;;9.27;;
11675;SDS011;5894;42.768;23.404;2023-06-26T07:42:53;9.07;;;8.30;;
11675;SDS011;5894;42.768;23.404;2023-06-26T07:45:20;7.97;;;7.30;;
11675;SDS011;5894;42.768;23.404;2023-06-26T07:47:47;8.95;;;8.13;;
11675;SDS011;5894;42.768;23.404;2023-06-26T07:50:14;8.77;;;7.97;;
11675;SDS011;5894;42.768;23.404;2023-06-26T07:52:44;9.95;;;7.00;;
11675;SDS011;5894;42.768;23.404;2023-06-26T07:55:11;7.80;;;7.07;;
11675;SDS011;5894;42.768;23.404;2023-06-26T07:57:40;7.72;;;7.03;;
11675;SDS011;5894;42.768;23.404;2023-06-26T08:00:07;7.53;;;6.85;;
11675;SDS011;5894;42.768;23.404;2023-06-26T08:02:41;6.78;;;6.07;;
11675;SDS011;5894;42.768;23.404;2023-06-26T08:05:08;7.80;;;7.10;;
11675;SDS011;5894;42.768;23.404;2023-06-26T08:07:35;6.82;;;6.13;;
11675;SDS011;5894;42.768;23.404;2023-06-26T08:10:03;6.25;;;5.75;;
11675;SDS011;5894;42.768;23.404;2023-06-26T08:12:30;7.68;;;6.18;;
11675;SDS011;5894;42.768;23.404;2023-06-26T08:14:58;7.35;;;6.38;;
11675;SDS011;5894;42.768;23.404;2023-06-26T08:17:28;7.18;;;6.45;;
11675;SDS011;5894;42.768;23.404;2023-06-26T08:19:54;8.80;;;6.38;;
11675;SDS011;5894;42.768;23.404;2023-06-26T08:22:21;7.05;;;6.45;;
11675;SDS011;5894;42.768;23.404;2023-06-26T08:24:49;7.68;;;6.22;;
11675;SDS011;5894;42.768;23.404;2023-06-26T08:27:16;13.90;;;6.38;;
11675;SDS011;5894;42.768;23.404;2023-06-26T08:29:43;6.55;;;5.95;;
11675;SDS011;5894;42.768;23.404;2023-06-26T08:32:11;7.38;;;6.65;;
11675;SDS011;5894;42.768;23.404;2023-06-26T08:34:38;7.63;;;6.38;;
11675;SDS011;5894;42.768;23.404;2023-06-26T08:37:06;7.20;;;6.50;;
11675;SDS011;5894;42.768;23.404;2023-06-26T08:39:37;6.97;;;6.13;;
11675;SDS011;5894;42.768;23.404;2023-06-26T08:42:04;6.95;;;6.35;;
11675;SDS011;5894;42.768;23.404;2023-06-26T08:44:32;8.23;;;6.40;;
11675;SDS011;5894;42.768;23.404;2023-06-26T08:46:59;7.00;;;6.40;;
11675;SDS011;5894;42.768;23.404;2023-06-26T08:49:33;6.88;;;6.28;;
11675;SDS011;5894;42.768;23.404;2023-06-26T08:52:10;7.72;;;7.03;;
11675;SDS011;5894;42.768;23.404;2023-06-26T08:54:45;7.50;;;6.70;;
11675;SDS011;5894;42.768;23.404;2023-06-26T08:57:18;8.00;;;6.95;;
11675;SDS011;5894;42.768;23.404;2023-06-26T08:59:45;8.70;;;7.80;;
11675;SDS011;5894;42.768;23.404;2023-06-26T09:02:14;6.45;;;5.85;;
11675;SDS011;5894;42.768;23.404;2023-06-26T09:04:42;5.50;;;4.90;;
11675;SDS011;5894;42.768;23.404;2023-06-26T09:07:10;7.97;;;5.63;;
11675;SDS011;5894;42.768;23.404;2023-06-26T09:09:37;7.85;;;5.95;;
11675;SDS011;5894;42.768;23.404;2023-06-26T09:12:04;7.82;;;5.75;;
11675;SDS011;5894;42.768;23.404;2023-06-26T09:14:32;6.60;;;5.93;;
11675;SDS011;5894;42.768;23.404;2023-06-26T09:16:59;7.18;;;5.82;;
11675;SDS011;5894;42.768;23.404;2023-06-26T09:19:27;6.55;;;5.93;;
11675;SDS011;5894;42.768;23.404;2023-06-26T09:21:58;7.03;;;5.90;;
11675;SDS011;5894;42.768;23.404;2023-06-26T09:24:26;6.45;;;5.65;;
11675;SDS011;5894;42.768;23.404;2023-06-26T09:26:54;5.97;;;5.38;;
11675;SDS011;5894;42.768;23.404;2023-06-26T09:29:21;6.30;;;5.68;;
11675;SDS011;5894;42.768;23.404;2023-06-26T09:31:49;6.13;;;5.57;;
11675;SDS011;5894;42.768;23.404;2023-06-26T09:34:18;7.32;;;5.35;;
11675;SDS011;5894;42.768;23.404;2023-06-26T09:36:45;6.00;;;5.43;;
11675;SDS011;5894;42.768;23.404;2023-06-26T09:39:16;6.70;;;5.90;;
11675;SDS011;5894;42.768;23.404;2023-06-26T09:41:43;6.13;;;5.63;;
11675;SDS011;5894;42.768;23.404;2023-06-26T09:44:11;6.25;;;5.40;;
11675;SDS011;5894;42.768;23.404;2023-06-26T09:46:39;5.65;;;5.20;;
11675;SDS011;5894;42.768;23.404;2023-06-26T09:49:11;6.60;;;5.90;;
11675;SDS011;5894;42.768;23.404;2023-06-26T09:51:39;7.47;;;6.30;;
11675;SDS011;5894;42.768;23.404;2023-06-26T09:54:07;9.73;;;6.47;;
11675;SDS011;5894;42.768;23.404;2023-06-26T09:56:36;7.30;;;6.50;;
11675;SDS011;5894;42.768;23.404;2023-06-26T09:59:04;6.85;;;6.10;;
11675;SDS011;5894;42.768;23.404;2023-06-26T10:01:32;6.55;;;5.95;;
11675;SDS011;5894;42.768;23.404;2023-06-26T10:04:00;7.10;;;6.40;;
11675;SDS011;5894;42.768;23.404;2023-06-26T10:06:28;7.78;;;6.80;;
11675;SDS011;5894;42.768;23.404;2023-06-26T10:09:00;7.45;;;6.75;;
11675;SDS011;5894;42.768;23.404;2023-06-26T10:11:31;10.43;;;7.03;;
11675;SDS011;5894;42.768;23.404;2023-06-26T10:14:04;7.35;;;6.75;;
11675;SDS011;5894;42.768;23.404;2023-06-26T10:16:36;6.80;;;6.20;;
11675;SDS011;5894;42.768;23.404;2023-06-26T10:19:06;7.50;;;6.65;;
11675;SDS011;5894;42.768;23.404;2023-06-26T10:21:36;7.45;;;6.75;;
11675;SDS011;5894;42.768;23.404;2023-06-26T10:24:05;6.40;;;5.82;;
11675;SDS011;5894;42.768;23.404;2023-06-26T10:26:35;6.43;;;5.82;;
11675;SDS011;5894;42.768;23.404;2023-06-26T10:29:10;6.40;;;5.80;;
11675;SDS011;5894;42.768;23.404;2023-06-26T10:31:40;7.30;;;6.18;;
11675;SDS011;5894;42.768;23.404;2023-06-26T10:34:18;6.53;;;5.78;;
11675;SDS011;5894;42.768;23.404;2023-06-26T10:36:45;8.57;;;6.13;;
11675;SDS011;5894;42.768;23.404;2023-06-26T10:39:13;6.68;;;5.95;;
11675;SDS011;5894;42.768;23.404;2023-06-26T10:41:40;9.38;;;6.00;;
11675;SDS011;5894;42.768;23.404;2023-06-26T10:44:13;6.88;;;6.18;;
11675;SDS011;5894;42.768;23.404;2023-06-26T10:46:50;7.13;;;6.43;;
11675;SDS011;5894;42.768;23.404;2023-06-26T10:49:18;6.75;;;6.03;;
11675;SDS011;5894;42.768;23.404;2023-06-26T10:51:46;6.47;;;5.88;;
11675;SDS011;5894;42.768;23.404;2023-06-26T10:54:15;6.28;;;5.68;;
11675;SDS011;5894;42.768;23.404;2023-06-26T10:56:43;6.55;;;6.00;;
11675;SDS011;5894;42.768;23.404;2023-06-26T10:59:15;6.63;;;6.07;;
11675;SDS011;5894;42.768;23.404;2023-06-26T11:01:45;10.93;;;7.18;;
11675;SDS011;5894;42.768;23.404;2023-06-26T11:04:21;10.70;;;7.43;;
11675;SDS011;5894;42.768;23.404;2023-06-26T11:09:56;8.65;;;7.50;;
11675;SDS011;5894;42.768;23.404;2023-06-26T11:12:36;10.60;;;7.85;;
11675;SDS011;5894;42.768;23.404;2023-06-26T11:15:08;8.52;;;7.63;;
11675;SDS011;5894;42.768;23.404;2023-06-26T11:17:36;11.73;;;7.68;;
11675;SDS011;5894;42.768;23.404;2023-06-26T11:20:04;10.68;;;7.07;;
11675;SDS011;5894;42.768;23.404;2023-06-26T11:22:34;7.72;;;6.95;;
11675;SDS011;5894;42.768;23.404;2023-06-26T11:25:02;7.93;;;7.15;;
11675;SDS011;5894;42.768;23.404;2023-06-26T11:27:31;7.28;;;6.55;;
11675;SDS011;5894;42.768;23.404;2023-06-26T11:29:59;10.57;;;7.10;;
11675;SDS011;5894;42.768;23.404;2023-06-26T11:32:27;7.72;;;6.97;;
11675;SDS011;5894;42.768;23.404;2023-06-26T11:34:55;7.80;;;6.65;;
11675;SDS011;5894;42.768;23.404;2023-06-26T11:37:22;7.68;;;6.13;;
11675;SDS011;5894;42.768;23.404;2023-06-26T11:39:51;7.45;;;6.30;;
11675;SDS011;5894;42.768;23.404;2023-06-26T11:42:19;6.53;;;5.60;;
11675;SDS011;5894;42.768;23.404;2023-06-26T11:44:46;9.23;;;5.72;;
11675;SDS011;5894;42.768;23.404;2023-06-26T11:47:14;7.30;;;5.20;;
11675;SDS011;5894;42.768;23.404;2023-06-26T11:49:44;7.30;;;5.72;;
11675;SDS011;5894;42.768;23.404;2023-06-26T11:52:11;6.35;;;5.30;;
11675;SDS011;5894;42.768;23.404;2023-06-26T11:54:39;10.82;;;6.00;;
11675;SDS011;5894;42.768;23.404;2023-06-26T11:57:06;6.05;;;5.22;;
11675;SDS011;5894;42.768;23.404;2023-06-26T11:59:34;5.57;;;4.95;;
11675;SDS011;5894;42.768;23.404;2023-06-26T12:02:06;5.25;;;4.75;;
11675;SDS011;5894;42.768;23.404;2023-06-26T12:04:35;9.07;;;4.90;;
11675;SDS011;5894;42.768;23.404;2023-06-26T12:07:05;6.00;;;4.78;;
11675;SDS011;5894;42.768;23.404;2023-06-26T12:09:37;7.65;;;5.22;;
11675;SDS011;5894;42.768;23.404;2023-06-26T12:12:06;5.20;;;4.70;;
11675;SDS011;5894;42.768;23.404;2023-06-26T12:14:34;6.25;;;5.15;;
11675;SDS011;5894;42.768;23.404;2023-06-26T12:17:05;5.38;;;4.90;;
11675;SDS011;5894;42.768;23.404;2023-06-26T12:19:36;6.15;;;5.53;;
11675;SDS011;5894;42.768;23.404;2023-06-26T12:22:09;5.75;;;5.20;;
11675;SDS011;5894;42.768;23.404;2023-06-26T12:24:37;5.90;;;5.22;;
11675;SDS011;5894;42.768;23.404;2023-06-26T12:27:07;5.65;;;5.15;;
11675;SDS011;5894;42.768;23.404;2023-06-26T12:29:36;7.10;;;5.95;;
11675;SDS011;5894;42.768;23.404;2023-06-26T12:32:07;5.80;;;5.25;;
11675;SDS011;5894;42.768;23.404;2023-06-26T12:34:36;5.78;;;5.28;;
11675;SDS011;5894;42.768;23.404;2023-06-26T12:37:05;5.85;;;5.35;;
11675;SDS011;5894;42.768;23.404;2023-06-26T12:39:46;6.13;;;5.47;;
11675;SDS011;5894;42.768;23.404;2023-06-26T12:42:15;5.65;;;5.15;;
11675;SDS011;5894;42.768;23.404;2023-06-26T12:44:43;5.57;;;4.75;;
11675;SDS011;5894;42.768;23.404;2023-06-26T12:47:10;7.95;;;4.78;;
11675;SDS011;5894;42.768;23.404;2023-06-26T12:49:39;8.77;;;5.10;;
11675;SDS011;5894;42.768;23.404;2023-06-26T12:52:08;5.63;;;5.13;;
11675;SDS011;5894;42.768;23.404;2023-06-26T12:54:36;5.90;;;5.40;;
11675;SDS011;5894;42.768;23.404;2023-06-26T12:57:06;5.57;;;5.07;;
11675;SDS011;5894;42.768;23.404;2023-06-26T12:59:34;6.05;;;5.43;;
11675;SDS011;5894;42.768;23.404;2023-06-26T13:02:01;5.38;;;4.88;;
11675;SDS011;5894;42.768;23.404;2023-06-26T13:04:29;5.43;;;4.93;;
11675;SDS011;5894;42.768;23.404;2023-06-26T13:06:56;7.15;;;4.82;;
11675;SDS011;5894;42.768;23.404;2023-06-26T13:09:23;7.85;;;4.75;;
11675;SDS011;5894;42.768;23.404;2023-06-26T13:11:51;5.20;;;4.80;;
11675;SDS011;5894;42.768;23.404;2023-06-26T13:14:20;5.32;;;4.80;;
11675;SDS011;5894;42.768;23.404;2023-06-26T13:16:47;6.32;;;5.05;;
11675;SDS011;5894;42.768;23.404;2023-06-26T13:19:14;5.38;;;4.82;;
11675;SDS011;5894;42.768;23.404;2023-06-26T13:21:41;5.60;;;5.10;;
11675;SDS011;5894;42.768;23.404;2023-06-26T13:24:08;5.35;;;4.95;;
11675;SDS011;5894;42.768;23.404;2023-06-26T13:26:35;5.63;;;4.80;;
11675;SDS011;5894;42.768;23.404;2023-06-26T13:29:02;7.22;;;5.30;;
11675;SDS011;5894;42.768;23.404;2023-06-26T13:31:31;5.60;;;5.10;;
11675;SDS011;5894;42.768;23.404;2023-06-26T13:33:58;5.03;;;4.63;;
11675;SDS011;5894;42.768;23.404;2023-06-26T13:36:26;7.82;;;5.15;;
11675;SDS011;5894;42.768;23.404;2023-06-26T13:38:53;6.28;;;5.18;;
11675;SDS011;5894;42.768;23.404;2023-06-26T13:41:22;12.95;;;5.45;;
11675;SDS011;5894;42.768;23.404;2023-06-26T13:43:49;9.50;;;8.50;;
11675;SDS011;5894;42.768;23.404;2023-06-26T13:46:16;5.55;;;5.00;;
11675;SDS011;5894;42.768;23.404;2023-06-26T13:48:45;5.68;;;5.10;;
11675;SDS011;5894;42.768;23.404;2023-06-26T13:51:12;5.75;;;4.75;;
11675;SDS011;5894;42.768;23.404;2023-06-26T13:53:39;5.05;;;4.55;;
11675;SDS011;5894;42.768;23.404;2023-06-26T13:56:06;5.55;;;5.05;;
11675;SDS011;5894;42.768;23.404;2023-06-26T13:58:34;8.15;;;5.80;;
11675;SDS011;5894;42.768;23.404;2023-06-26T14:01:04;6.63;;;5.93;;
11675;SDS011;5894;42.768;23.404;2023-06-26T14:03:31;7.32;;;5.40;;
11675;SDS011;5894;42.768;23.404;2023-06-26T14:06:00;5.50;;;5.00;;
11675;SDS011;5894;42.768;23.404;2023-06-26T14:08:27;6.28;;;5.68;;
11675;SDS011;5894;42.768;23.404;2023-06-26T14:10:54;5.97;;;5.38;;
11675;SDS011;5894;42.768;23.404;2023-06-26T14:13:21;6.65;;;5.45;;
11675;SDS011;5894;42.768;23.404;2023-06-26T14:15:48;6.20;;;5.60;;
11675;SDS011;5894;42.768;23.404;2023-06-26T14:18:18;7.18;;;6.20;;
11675;SDS011;5894;42.768;23.404;2023-06-26T14:20:46;8.00;;;5.80;;
11675;SDS011;5894;42.768;23.404;2023-06-26T14:23:15;7.88;;;6.63;;
11675;SDS011;5894;42.768;23.404;2023-06-26T14:25:42;7.90;;;6.80;;
11675;SDS011;5894;42.768;23.404;2023-06-26T14:28:09;8.27;;;7.15;;
11675;SDS011;5894;42.768;23.404;2023-06-26T14:30:36;7.60;;;6.40;;
11675;SDS011;5894;42.768;23.404;2023-06-26T14:33:03;7.32;;;6.07;;
11675;SDS011;5894;42.768;23.404;2023-06-26T14:35:33;6.10;;;5.60;;
11675;SDS011;5894;42.768;23.404;2023-06-26T14:38:01;5.88;;;5.28;;
11675;SDS011;5894;42.768;23.404;2023-06-26T14:40:29;5.93;;;5.10;;
11675;SDS011;5894;42.768;23.404;2023-06-26T14:42:56;6.22;;;5.63;;